createdAt,value
2022-12-19T00:01:12.948Z,81.40
2022-12-19T00:03:39.389Z,81.60
2022-12-19T00:06:06.285Z,79.30
2022-12-19T00:08:33.181Z,80.60
2022-12-19T00:11:02.172Z,71.50
2022-12-19T00:13:31.156Z,81.10
2022-12-19T00:16:03.267Z,80.50
2022-12-19T00:18:30.087Z,79.20
2022-12-19T00:21:04.243Z,86.50
2022-12-19T00:23:32.738Z,82.30
2022-12-19T00:26:15.713Z,82.60
2022-12-19T00:28:44.837Z,76.90
2022-12-19T00:31:11.326Z,73.60
2022-12-19T00:33:39.435Z,76.30
2022-12-19T00:36:16.882Z,72.70
2022-12-19T00:38:50.420Z,72.70
2022-12-19T00:41:20.026Z,68.70
2022-12-19T00:43:47.031Z,68.90
2022-12-19T00:46:15.977Z,68.70
2022-12-19T00:48:43.155Z,72.00
2022-12-19T00:51:16.106Z,71.60
2022-12-19T00:53:46.021Z,68.70
2022-12-19T00:56:18.199Z,70.10
2022-12-19T00:58:47.273Z,72.70
2022-12-19T01:01:20.485Z,70.40
2022-12-19T01:04:18.769Z,65.10
2022-12-19T01:06:34.905Z,63.90
2022-12-19T01:09:01.961Z,65.50
2022-12-19T01:11:28.495Z,65.80
2022-12-19T01:13:55.052Z,66.60
2022-12-19T01:16:21.582Z,65.50
2022-12-19T01:18:48.108Z,61.00
2022-12-19T01:21:14.752Z,62.00
2022-12-19T01:23:41.289Z,63.50
2022-12-19T01:26:08.854Z,59.20
2022-12-19T01:28:35.343Z,61.70
2022-12-19T01:31:05.733Z,62.00
2022-12-19T01:33:33.689Z,56.10
2022-12-19T01:36:00.158Z,56.00
2022-12-19T01:38:26.667Z,55.10
2022-12-19T01:40:55.873Z,56.50
2022-12-19T01:43:24.246Z,55.40
2022-12-19T01:46:03.149Z,53.50
2022-12-19T01:48:40.108Z,54.60
2022-12-19T01:51:14.310Z,55.70
2022-12-19T01:53:48.564Z,56.60
2022-12-19T01:56:19.834Z,54.40
2022-12-19T01:58:48.677Z,52.50
2022-12-19T02:01:18.159Z,44.10
2022-12-19T02:03:46.129Z,52.50
2022-12-19T02:06:17.325Z,50.60
2022-12-19T02:08:48.099Z,50.40
2022-12-19T02:11:14.576Z,51.40
2022-12-19T02:13:41.873Z,52.40
2022-12-19T02:16:20.469Z,51.00
2022-12-19T02:18:55.839Z,53.30
2022-12-19T02:21:42.974Z,52.40
2022-12-19T02:24:23.848Z,47.20
2022-12-19T02:26:59.199Z,50.20
2022-12-19T02:30:03.626Z,52.50
2022-12-19T02:32:38.973Z,49.30
2022-12-19T02:35:19.955Z,50.60
2022-12-19T02:38:09.353Z,54.10
2022-12-19T02:40:48.602Z,52.60
2022-12-19T02:43:22.792Z,50.00
2022-12-19T02:45:51.152Z,48.90
2022-12-19T02:48:19.486Z,49.90
2022-12-19T02:50:50.191Z,55.00
2022-12-19T02:53:17.340Z,49.70
2022-12-19T02:56:22.605Z,56.40
2022-12-19T02:59:12.698Z,51.30
2022-12-19T03:01:52.531Z,48.60
2022-12-19T03:04:52.525Z,45.90
2022-12-19T03:07:25.065Z,44.20
2022-12-19T03:10:06.868Z,47.20
2022-12-19T03:12:39.655Z,44.60
2022-12-19T03:15:07.960Z,41.90
2022-12-19T03:17:36.833Z,43.20
2022-12-19T03:20:34.459Z,42.60
2022-12-19T03:23:01.136Z,41.50
2022-12-19T03:25:30.761Z,44.90
2022-12-19T03:28:04.944Z,43.60
2022-12-19T03:30:34.497Z,42.30
2022-12-19T03:33:02.713Z,39.90
2022-12-19T03:35:33.366Z,42.00
2022-12-19T03:38:04.696Z,43.10
2022-12-19T03:40:33.228Z,45.50
2022-12-19T03:43:03.571Z,41.30
2022-12-19T03:45:57.497Z,43.10
2022-12-19T03:48:41.831Z,43.00
2022-12-19T03:51:15.299Z,44.90
2022-12-19T03:53:54.423Z,41.60
2022-12-19T03:56:53.147Z,43.30
2022-12-19T03:59:36.007Z,40.90
2022-12-19T04:02:04.659Z,38.60
2022-12-19T04:04:35.873Z,38.10
2022-12-19T04:07:04.169Z,35.90
2022-12-19T04:09:32.293Z,40.90
2022-12-19T04:12:04.838Z,39.50
2022-12-19T04:14:34.705Z,41.40
2022-12-19T04:17:18.286Z,46.20
2022-12-19T04:19:44.626Z,43.90
2022-12-19T04:22:18.287Z,39.20
2022-12-19T04:24:46.403Z,39.50
2022-12-19T04:27:14.386Z,39.10
2022-12-19T04:29:42.442Z,42.30
2022-12-19T04:32:11.132Z,38.90
2022-12-19T04:34:41.505Z,40.40
2022-12-19T04:37:10.843Z,44.00
2022-12-19T04:39:37.372Z,37.60
2022-12-19T04:42:04.476Z,40.00
2022-12-19T04:44:30.962Z,40.90
2022-12-19T04:46:57.959Z,44.90
2022-12-19T04:49:24.615Z,43.60
2022-12-19T04:51:51.127Z,45.50
2022-12-19T04:54:17.669Z,46.40
2022-12-19T04:56:44.410Z,49.40
2022-12-19T04:59:11.289Z,51.40
2022-12-19T05:01:38.129Z,48.20
2022-12-19T05:04:05.491Z,42.50
2022-12-19T05:06:32.559Z,42.80
2022-12-19T05:08:59.150Z,41.60
2022-12-19T05:11:25.548Z,41.60
2022-12-19T05:13:52.136Z,40.10
2022-12-19T05:16:19.352Z,43.00
2022-12-19T05:18:46.641Z,41.70
2022-12-19T05:21:13.170Z,41.10
2022-12-19T05:23:39.822Z,44.10
2022-12-19T05:26:06.746Z,43.00
2022-12-19T05:28:34.118Z,47.50
2022-12-19T05:31:17.135Z,45.10
2022-12-19T05:33:43.819Z,53.60
2022-12-19T05:36:12.168Z,53.40
2022-12-19T05:38:38.828Z,49.60
2022-12-19T05:41:13.581Z,50.10
2022-12-19T05:43:40.265Z,47.90
2022-12-19T05:46:07.318Z,43.90
2022-12-19T05:48:35.210Z,45.90
2022-12-19T05:51:02.271Z,43.10
2022-12-19T05:53:29.317Z,39.60
2022-12-19T05:56:15.963Z,40.40
2022-12-19T05:58:44.211Z,42.50
2022-12-19T06:01:22.662Z,43.50
2022-12-19T06:03:49.955Z,40.20
2022-12-19T06:06:21.552Z,54.50
2022-12-19T06:08:48.528Z,52.10
2022-12-19T06:11:15.100Z,61.20
2022-12-19T06:13:41.673Z,101.70
2022-12-19T06:16:22.598Z,91.70
2022-12-19T06:18:49.368Z,84.10
2022-12-19T06:21:18.081Z,92.00
2022-12-19T06:23:45.508Z,82.60
2022-12-19T06:26:19.131Z,65.50
2022-12-19T06:28:50.128Z,58.80
2022-12-19T06:31:17.635Z,52.50
2022-12-19T06:33:44.617Z,50.50
2022-12-19T06:36:18.245Z,50.70
2022-12-19T06:38:44.671Z,54.80
2022-12-19T06:41:15.778Z,51.20
2022-12-19T06:43:42.447Z,46.10
2022-12-19T06:46:09.745Z,49.20
2022-12-19T06:48:36.667Z,72.10
2022-12-19T06:51:03.918Z,59.70
2022-12-19T06:53:30.755Z,61.20
2022-12-19T06:55:59.545Z,63.30
2022-12-19T06:58:26.705Z,68.60
2022-12-19T07:00:54.506Z,71.70
2022-12-19T07:03:24.773Z,73.00
2022-12-19T07:05:51.296Z,75.30
2022-12-19T07:08:17.716Z,72.50
2022-12-19T07:10:44.451Z,81.60
2022-12-19T07:13:11.150Z,85.10
2022-12-19T07:15:38.511Z,84.60
2022-12-19T07:18:07.100Z,81.50
2022-12-19T07:20:40.607Z,75.50
2022-12-19T07:23:13.380Z,73.20
2022-12-19T07:25:40.237Z,75.70
2022-12-19T07:28:07.704Z,71.80
2022-12-19T07:30:34.743Z,72.20
2022-12-19T07:33:01.348Z,80.00
2022-12-19T07:35:27.808Z,75.10
2022-12-19T07:37:54.462Z,71.50
2022-12-19T07:40:21.002Z,78.10
2022-12-19T07:42:47.455Z,76.20
2022-12-19T07:45:14.521Z,76.10
2022-12-19T07:47:41.030Z,74.10
2022-12-19T07:50:08.291Z,75.10
2022-12-19T07:52:34.727Z,74.20
2022-12-19T07:55:01.268Z,79.70
2022-12-19T07:57:27.803Z,83.50
2022-12-19T07:59:54.247Z,84.00
2022-12-19T08:02:21.053Z,80.60
2022-12-19T08:04:47.688Z,83.60
2022-12-19T08:07:14.222Z,83.20
2022-12-19T08:09:40.797Z,76.40
2022-12-19T08:12:07.444Z,84.30
2022-12-19T08:14:33.987Z,84.30
2022-12-19T08:19:46.978Z,83.80
2022-12-19T08:22:13.477Z,80.60
2022-12-19T08:24:40.006Z,81.20
2022-12-19T08:27:06.496Z,81.00
2022-12-19T08:29:33.186Z,88.10
2022-12-19T08:31:59.731Z,86.20
2022-12-19T08:34:26.177Z,83.80
2022-12-19T08:36:52.806Z,81.80
2022-12-19T08:39:19.253Z,81.80
2022-12-19T08:41:45.793Z,91.60
2022-12-19T08:44:12.233Z,101.40
2022-12-19T08:46:38.948Z,108.50
2022-12-19T08:49:05.852Z,95.90
2022-12-19T08:51:32.368Z,91.60
2022-12-19T08:53:59.611Z,90.80
2022-12-19T08:56:26.254Z,101.20
2022-12-19T08:58:52.828Z,100.00
2022-12-19T09:01:20.978Z,96.00
2022-12-19T09:04:33.987Z,94.20
2022-12-19T09:06:34.595Z,92.30
2022-12-19T09:09:01.201Z,73.20
2022-12-19T09:11:27.814Z,79.20
2022-12-19T09:13:56.618Z,78.30
2022-12-19T09:16:25.851Z,68.10
2022-12-19T09:18:54.922Z,63.20
2022-12-19T09:21:24.019Z,55.90
2022-12-19T09:23:55.476Z,63.30
2022-12-19T09:26:24.014Z,62.30
2022-12-19T09:28:50.812Z,77.10
2022-12-19T09:31:20.468Z,60.90
2022-12-19T09:33:47.774Z,48.10
2022-12-19T09:36:18.718Z,51.80
2022-12-19T09:38:45.876Z,50.60
2022-12-19T09:41:30.689Z,50.50
2022-12-19T09:44:36.486Z,47.50
2022-12-19T09:47:10.150Z,45.50
2022-12-19T09:49:41.708Z,46.40
2022-12-19T09:52:43.831Z,46.80
2022-12-19T09:55:25.534Z,49.30
2022-12-19T09:58:06.812Z,48.80
2022-12-19T10:00:43.011Z,49.80
2022-12-19T10:03:22.028Z,52.60
2022-12-19T10:07:12.405Z,51.30
2022-12-19T10:09:18.914Z,51.70
2022-12-19T10:12:40.652Z,47.60
2022-12-19T10:15:21.050Z,49.40
2022-12-19T10:18:22.016Z,47.20
2022-12-19T10:21:16.419Z,47.40
2022-12-19T10:23:56.785Z,46.40
2022-12-19T10:26:39.768Z,49.20
2022-12-19T10:29:27.398Z,53.70
2022-12-19T10:32:17.625Z,52.10
2022-12-19T10:34:45.992Z,61.00
2022-12-19T10:37:27.296Z,52.80
2022-12-19T10:40:32.146Z,50.80
2022-12-19T10:43:11.000Z,51.20
2022-12-19T10:45:49.927Z,43.30
2022-12-19T10:48:19.877Z,44.10
2022-12-19T10:50:49.357Z,42.60
2022-12-19T10:53:16.589Z,39.10
2022-12-19T10:55:51.643Z,39.40
2022-12-19T10:58:28.724Z,37.60
2022-12-19T11:01:14.763Z,41.30
2022-12-19T11:03:43.865Z,40.10
2022-12-19T11:06:35.172Z,40.00
2022-12-19T11:09:26.568Z,40.80
2022-12-19T11:16:06.769Z,38.60
2022-12-19T11:19:43.709Z,36.40
2022-12-19T11:22:04.935Z,38.90
2022-12-19T11:29:54.224Z,35.30
2022-12-19T11:30:35.212Z,34.40
2022-12-19T11:30:42.985Z,36.80
2022-12-19T11:33:15.215Z,40.80
2022-12-19T11:35:52.153Z,38.40
2022-12-19T11:38:43.285Z,35.80
2022-12-19T11:41:22.033Z,38.10
2022-12-19T11:44:06.992Z,42.60
2022-12-19T11:46:45.684Z,33.90
2022-12-19T11:49:27.679Z,31.40
2022-12-19T11:52:02.896Z,27.20
2022-12-19T11:54:40.083Z,34.60
2022-12-19T11:57:12.070Z,24.20
2022-12-19T11:59:40.256Z,25.70
2022-12-19T12:02:42.793Z,20.10
2022-12-19T12:05:51.738Z,19.30
2022-12-19T12:10:51.109Z,19.10
2022-12-19T12:18:19.598Z,18.70
2022-12-19T12:27:14.371Z,16.80
2022-12-19T12:31:39.753Z,15.60
2022-12-19T12:31:44.386Z,12.60
2022-12-19T12:31:52.227Z,15.90
2022-12-19T12:31:52.922Z,15.80
2022-12-19T12:31:55.325Z,13.70
2022-12-19T12:35:40.930Z,15.60
2022-12-19T12:37:55.897Z,14.40
2022-12-19T12:39:21.868Z,16.30
2022-12-19T12:42:27.152Z,15.90
2022-12-19T12:44:57.535Z,13.90
2022-12-19T12:47:26.300Z,13.70
2022-12-19T12:49:52.799Z,12.70
2022-12-19T12:52:33.588Z,12.60
2022-12-19T12:55:01.489Z,11.90
2022-12-19T12:57:28.699Z,12.10
2022-12-19T13:00:18.607Z,15.60
2022-12-19T13:02:51.187Z,16.20
2022-12-19T13:05:36.798Z,15.00
2022-12-19T13:08:32.104Z,14.70
2022-12-19T13:11:02.314Z,19.10
2022-12-19T13:13:48.383Z,18.60
2022-12-19T13:16:48.837Z,15.10
2022-12-19T13:19:28.067Z,12.90
2022-12-19T13:22:04.286Z,13.30
2022-12-19T13:24:53.416Z,17.70
2022-12-19T13:27:19.882Z,16.90
2022-12-19T13:30:01.599Z,15.30
2022-12-19T13:32:54.034Z,13.70
2022-12-19T13:36:29.618Z,12.10
2022-12-19T13:40:00.761Z,11.40
2022-12-19T13:41:27.609Z,12.90
2022-12-19T13:43:59.875Z,13.60
2022-12-19T13:46:32.105Z,13.10
2022-12-19T13:49:19.963Z,12.50
2022-12-19T13:51:53.359Z,29.00
2022-12-19T13:54:27.546Z,17.50
2022-12-19T13:56:56.065Z,17.00
2022-12-19T13:59:26.433Z,21.50
2022-12-19T14:01:54.545Z,13.50
2022-12-19T14:04:29.906Z,16.90
2022-12-19T14:07:06.404Z,23.90
2022-12-19T14:11:27.070Z,38.70
2022-12-19T14:13:40.727Z,41.10
2022-12-19T14:15:44.242Z,126.40
2022-12-19T14:18:45.086Z,103.30
2022-12-19T14:22:06.931Z,65.90
2022-12-19T14:24:20.060Z,62.30
2022-12-19T14:28:23.324Z,80.90
2022-12-19T14:30:26.730Z,129.00
2022-12-19T14:33:47.344Z,119.60
2022-12-19T14:36:11.419Z,98.10
2022-12-19T14:39:22.891Z,51.30
2022-12-19T14:41:19.748Z,88.90
2022-12-19T14:43:58.764Z,111.90
2022-12-19T14:52:51.076Z,116.30
2022-12-19T14:54:04.474Z,150.90
2022-12-19T14:54:28.083Z,78.00
2022-12-19T14:56:08.827Z,109.10
2022-12-19T14:58:53.567Z,101.20
2022-12-19T15:01:24.957Z,95.90
2022-12-19T15:04:50.555Z,53.60
2022-12-19T15:07:09.584Z,71.40
2022-12-19T15:11:09.050Z,68.20
2022-12-19T15:14:53.426Z,88.70
2022-12-19T15:16:24.233Z,77.10
2022-12-19T15:18:54.043Z,110.30
2022-12-19T15:21:20.556Z,107.60
2022-12-19T15:23:47.025Z,103.20
2022-12-19T15:26:35.157Z,72.20
2022-12-19T15:29:07.115Z,70.60
2022-12-19T15:31:41.924Z,59.90
2022-12-19T15:34:40.502Z,56.40
2022-12-19T15:37:13.153Z,83.90
2022-12-19T15:39:40.696Z,82.30
2022-12-19T15:42:18.799Z,62.80
2022-12-19T15:44:46.902Z,70.10
2022-12-19T15:47:19.550Z,94.30
2022-12-19T15:49:46.699Z,88.70
2022-12-19T15:52:18.689Z,102.50
2022-12-19T15:54:48.460Z,82.50
2022-12-19T15:57:29.488Z,100.60
2022-12-19T15:59:58.154Z,95.70
2022-12-19T16:02:42.766Z,78.60
2022-12-19T16:05:14.506Z,84.60
2022-12-19T16:07:41.138Z,82.50
2022-12-19T16:10:10.731Z,81.00
2022-12-19T16:12:50.167Z,75.80
2022-12-19T16:15:31.993Z,71.90
2022-12-19T16:18:00.458Z,74.90
2022-12-19T16:20:30.088Z,72.30
2022-12-19T16:22:56.809Z,80.40
2022-12-19T16:25:29.557Z,100.90
2022-12-19T16:27:58.175Z,126.70
2022-12-19T16:30:34.879Z,95.30
2022-12-19T16:33:02.116Z,85.40
2022-12-19T16:36:02.389Z,99.00
2022-12-19T16:38:17.484Z,87.00
2022-12-19T16:40:45.312Z,117.10
2022-12-19T16:43:24.044Z,103.80
2022-12-19T16:45:50.708Z,109.90
2022-12-19T16:48:23.652Z,87.30
2022-12-19T16:50:50.585Z,67.10
2022-12-19T16:53:17.637Z,66.10
2022-12-19T16:55:47.720Z,65.30
2022-12-19T16:58:26.280Z,79.90
2022-12-19T17:00:54.309Z,61.10
2022-12-19T17:03:25.810Z,51.30
2022-12-19T17:08:19.905Z,68.80
2022-12-19T17:10:47.469Z,81.20
2022-12-19T17:13:16.100Z,68.80
2022-12-19T17:15:43.959Z,63.00
2022-12-19T17:18:17.323Z,61.00
2022-12-19T17:20:45.389Z,67.40
2022-12-19T17:23:20.715Z,70.10
2022-12-19T17:25:47.672Z,71.70
2022-12-19T17:28:15.025Z,73.70
2022-12-19T17:30:43.479Z,76.70
2022-12-19T17:33:15.551Z,73.50
2022-12-19T17:35:42.445Z,74.00
2022-12-19T17:38:13.492Z,88.50
2022-12-19T17:40:40.696Z,90.20
2022-12-19T17:43:08.007Z,90.40
2022-12-19T17:45:34.909Z,82.40
2022-12-19T17:48:08.053Z,80.60
2022-12-19T17:50:41.620Z,87.40
2022-12-19T17:53:15.608Z,58.10
2022-12-19T17:55:42.260Z,79.90
2022-12-19T17:58:10.367Z,55.00
2022-12-19T18:00:38.679Z,90.80
2022-12-19T18:03:25.722Z,86.20
2022-12-19T18:05:54.707Z,115.90
2022-12-19T18:08:24.221Z,70.80
2022-12-19T18:10:51.236Z,101.60
2022-12-19T18:13:17.971Z,102.80
2022-12-19T18:15:45.135Z,76.70
2022-12-19T18:18:16.911Z,35.30
2022-12-19T18:20:44.599Z,35.00
2022-12-19T18:23:21.686Z,24.10
2022-12-19T18:25:49.262Z,14.20
2022-12-19T18:28:16.873Z,9.20
2022-12-19T18:30:45.136Z,9.40
2022-12-19T18:33:21.919Z,9.30
2022-12-19T18:35:50.416Z,9.60
2022-12-19T18:38:19.617Z,10.30
2022-12-19T18:40:48.021Z,12.40
2022-12-19T18:43:16.301Z,19.30
2022-12-19T18:45:45.517Z,13.00
2022-12-19T18:48:30.957Z,18.30
2022-12-19T18:50:59.171Z,18.70
2022-12-19T18:53:34.283Z,14.20
2022-12-19T18:56:02.921Z,11.30
2022-12-19T18:58:29.608Z,16.70
2022-12-19T19:00:59.719Z,9.60
2022-12-19T19:03:35.892Z,14.20
2022-12-19T19:06:02.934Z,12.20
2022-12-19T19:08:32.269Z,11.40
2022-12-19T19:10:59.518Z,11.40
2022-12-19T19:13:27.085Z,24.20
2022-12-19T19:15:57.702Z,28.20
2022-12-19T19:18:26.940Z,18.90
2022-12-19T19:21:00.821Z,12.40
2022-12-19T19:23:34.803Z,16.10
2022-12-19T19:26:01.575Z,15.50
2022-12-19T19:28:28.092Z,22.30
2022-12-19T19:30:55.777Z,12.70
2022-12-19T19:33:30.817Z,12.10
2022-12-19T19:36:04.635Z,9.60
2022-12-19T19:38:36.374Z,16.30
2022-12-19T19:41:02.832Z,36.90
2022-12-19T19:43:29.270Z,23.50
2022-12-19T19:45:55.755Z,18.10
2022-12-19T19:48:22.341Z,18.40
2022-12-19T19:50:49.005Z,14.00
2022-12-19T19:53:15.531Z,31.40
2022-12-19T19:55:42.011Z,29.10
2022-12-19T19:58:08.512Z,23.70
2022-12-19T20:00:35.143Z,31.30
2022-12-19T20:03:06.328Z,14.20
2022-12-19T20:05:35.194Z,13.10
2022-12-19T20:08:01.622Z,12.80
2022-12-19T20:10:28.261Z,13.90
2022-12-19T20:12:54.651Z,11.90
2022-12-19T20:15:21.146Z,11.90
2022-12-19T20:17:47.675Z,10.70
2022-12-19T20:20:14.177Z,8.50
2022-12-19T20:22:40.657Z,8.90
2022-12-19T20:25:07.314Z,12.30
2022-12-19T20:27:33.764Z,11.00
2022-12-19T20:30:00.334Z,11.40
2022-12-19T20:32:26.817Z,8.80
2022-12-19T20:34:53.250Z,9.70
2022-12-19T20:37:19.754Z,8.00
2022-12-19T20:39:46.230Z,8.90
2022-12-19T20:42:12.718Z,11.00
2022-12-19T20:44:39.307Z,9.60
2022-12-19T20:47:05.914Z,11.20
2022-12-19T20:49:32.536Z,11.60
2022-12-19T20:51:59.232Z,11.60
2022-12-19T20:54:25.926Z,11.20
2022-12-19T20:56:52.649Z,8.90
2022-12-19T20:59:19.381Z,7.90
2022-12-19T21:01:45.998Z,7.90
2022-12-19T21:04:12.782Z,8.90
2022-12-19T21:06:39.597Z,9.00
2022-12-19T21:09:06.021Z,9.20
2022-12-19T21:11:33.074Z,8.60
2022-12-19T21:13:59.527Z,8.20
2022-12-19T21:16:26.191Z,6.80
2022-12-19T21:18:53.008Z,6.40
2022-12-19T21:21:23.281Z,6.90
2022-12-19T21:23:50.407Z,6.30
2022-12-19T21:26:17.316Z,7.10
2022-12-19T21:28:44.700Z,7.20
2022-12-19T21:31:20.585Z,6.70
2022-12-19T21:33:47.711Z,7.70
2022-12-19T21:36:21.026Z,6.70
2022-12-19T21:38:52.452Z,9.90
2022-12-19T21:41:19.608Z,9.50
2022-12-19T21:43:48.413Z,5.90
2022-12-19T21:46:16.711Z,11.50
2022-12-19T21:48:46.375Z,15.30
2022-12-19T21:51:14.046Z,11.20
2022-12-19T21:53:41.223Z,18.70
2022-12-19T21:56:27.009Z,17.80
2022-12-19T21:58:58.902Z,21.30
2022-12-19T22:01:25.858Z,19.50
2022-12-19T22:03:52.754Z,19.20
2022-12-19T22:06:27.889Z,14.00
2022-12-19T22:08:55.203Z,18.60
2022-12-19T22:11:22.528Z,20.60
2022-12-19T22:13:49.722Z,16.40
2022-12-19T22:16:17.033Z,10.40
2022-12-19T22:18:43.714Z,16.80
2022-12-19T22:21:15.133Z,12.60
2022-12-19T22:23:42.445Z,11.70
2022-12-19T22:26:16.061Z,10.40
2022-12-19T22:28:45.623Z,12.60
2022-12-19T22:31:20.836Z,7.80
2022-12-19T22:33:49.130Z,9.60
2022-12-19T22:36:19.776Z,8.00
2022-12-19T22:38:50.681Z,8.50
2022-12-19T22:41:18.796Z,7.80
2022-12-19T22:43:46.960Z,7.20
2022-12-19T22:46:16.289Z,6.40
2022-12-19T22:48:44.039Z,6.70
2022-12-19T22:51:11.272Z,5.20
2022-12-19T22:53:38.856Z,5.20
2022-12-19T22:56:08.393Z,6.30
2022-12-19T22:58:36.560Z,5.80
2022-12-19T23:01:05.548Z,6.20
2022-12-19T23:03:32.082Z,5.80
2022-12-19T23:06:00.983Z,5.40
2022-12-19T23:08:27.660Z,6.10
2022-12-19T23:10:54.077Z,5.20
2022-12-19T23:13:21.311Z,5.80
2022-12-19T23:15:47.845Z,5.70
2022-12-19T23:18:14.253Z,6.20
2022-12-19T23:20:40.951Z,6.40
2022-12-19T23:23:07.671Z,5.60
2022-12-19T23:25:38.841Z,5.40
2022-12-19T23:28:07.104Z,5.70
2022-12-19T23:30:33.918Z,5.40
2022-12-19T23:33:00.375Z,5.10
2022-12-19T23:35:28.054Z,7.40
2022-12-19T23:37:54.585Z,7.90
2022-12-19T23:40:21.037Z,8.40
2022-12-19T23:42:47.682Z,5.60
2022-12-19T23:45:14.531Z,7.20
2022-12-19T23:47:41.045Z,6.70
2022-12-19T23:50:08.409Z,5.40
2022-12-19T23:52:35.050Z,5.70
2022-12-19T23:55:01.472Z,5.00
2022-12-19T23:57:27.927Z,5.60
2022-12-19T23:59:54.480Z,4.70
